sensor_id;sensor_type;location;lat;lon;timestamp;pressure;altitude;pressure_sealevel;temperature;humidity
28432;BME280;15664;51.302;7.744;2022-10-16T00:01:54;53511.25;;;-146.98;90.50
28432;BME280;15664;51.302;7.744;2022-10-16T00:04:19;53474.88;;;-146.98;90.43
28432;BME280;15664;51.302;7.744;2022-10-16T00:06:45;53531.47;;;-146.98;90.39
28432;BME280;15664;51.302;7.744;2022-10-16T00:09:10;53539.56;;;-146.98;90.36
28432;BME280;15664;51.302;7.744;2022-10-16T00:11:38;53515.31;;;-146.98;90.43
28432;BME280;15664;51.302;7.744;2022-10-16T00:14:08;53517.31;;;-146.98;90.36
28432;BME280;15664;51.302;7.744;2022-10-16T00:16:34;53495.09;;;-146.98;90.39
28432;BME280;15664;51.302;7.744;2022-10-16T00:18:59;53503.19;;;-146.98;90.44
28432;BME280;15664;51.302;7.744;2022-10-16T00:21:27;53511.25;;;-146.98;90.41
28432;BME280;15664;51.302;7.744;2022-10-16T00:23:55;53525.41;;;-146.98;90.42
28432;BME280;15664;51.302;7.744;2022-10-16T00:26:21;53525.41;;;-146.98;90.45
28432;BME280;15664;51.302;7.744;2022-10-16T00:28:50;53517.31;;;-146.98;90.45
28432;BME280;15664;51.302;7.744;2022-10-16T00:31:18;53515.31;;;-146.98;90.48
28432;BME280;15664;51.302;7.744;2022-10-16T00:33:44;53497.09;;;-146.98;90.43
28432;BME280;15664;51.302;7.744;2022-10-16T00:36:11;53503.19;;;-146.98;90.35
28432;BME280;15664;51.302;7.744;2022-10-16T00:38:37;53527.44;;;-146.98;90.37
28432;BME280;15664;51.302;7.744;2022-10-16T00:41:04;53478.91;;;-146.98;90.46
28432;BME280;15664;51.302;7.744;2022-10-16T00:43:50;53523.38;;;-146.98;90.42
28432;BME280;15664;51.302;7.744;2022-10-16T00:46:22;53491.03;;;-146.98;90.36
28432;BME280;15664;51.302;7.744;2022-10-16T00:49:13;53484.97;;;-146.98;90.33
28432;BME280;15664;51.302;7.744;2022-10-16T00:54:12;53521.38;;;-146.98;90.23
28432;BME280;15664;51.302;7.744;2022-10-16T00:56:38;53547.66;;;-146.98;90.17
28432;BME280;15664;51.302;7.744;2022-10-16T00:59:10;53523.38;;;-146.98;90.15
28432;BME280;15664;51.302;7.744;2022-10-16T01:01:36;53499.13;;;-146.98;90.14
28432;BME280;15664;51.302;7.744;2022-10-16T01:04:02;53521.38;;;-146.98;90.17
28432;BME280;15664;51.302;7.744;2022-10-16T01:07:20;53519.34;;;-146.98;90.13
28432;BME280;15664;51.302;7.744;2022-10-16T01:12:51;53523.38;;;-146.98;89.84
28432;BME280;15664;51.302;7.744;2022-10-16T01:18:26;53487.00;;;-146.98;89.48
28432;BME280;15664;51.302;7.744;2022-10-16T01:21:03;53495.09;;;-146.98;89.42
28432;BME280;15664;51.302;7.744;2022-10-16T01:29:11;53533.50;;;-146.98;89.15
28432;BME280;15664;51.302;7.744;2022-10-16T01:31:39;53519.34;;;-146.98;89.22
28432;BME280;15664;51.302;7.744;2022-10-16T01:34:12;53491.03;;;-146.98;89.25
28432;BME280;15664;51.302;7.744;2022-10-16T01:36:43;53515.31;;;-146.98;89.22
28432;BME280;15664;51.302;7.744;2022-10-16T01:39:11;53484.97;;;-146.98;89.35
28432;BME280;15664;51.302;7.744;2022-10-16T01:41:40;53529.44;;;-146.98;89.33
28432;BME280;15664;51.302;7.744;2022-10-16T01:44:20;53521.38;;;-146.98;89.20
28432;BME280;15664;51.302;7.744;2022-10-16T01:46:50;53529.44;;;-146.98;89.22
28432;BME280;15664;51.302;7.744;2022-10-16T01:49:17;53499.13;;;-146.98;89.19
28432;BME280;15664;51.302;7.744;2022-10-16T01:51:46;53476.91;;;-146.98;89.14
28432;BME280;15664;51.302;7.744;2022-10-16T01:54:13;53533.50;;;-146.98;89.08
28432;BME280;15664;51.302;7.744;2022-10-16T01:56:40;53507.22;;;-146.98;89.21
28432;BME280;15664;51.302;7.744;2022-10-16T01:59:11;53509.25;;;-146.98;89.02
28432;BME280;15664;51.302;7.744;2022-10-16T02:01:40;53503.19;;;-146.98;89.16
28432;BME280;15664;51.302;7.744;2022-10-16T02:04:16;53499.13;;;-146.98;89.17
28432;BME280;15664;51.302;7.744;2022-10-16T02:06:42;53491.03;;;-146.98;89.13
28432;BME280;15664;51.302;7.744;2022-10-16T02:09:08;53487.00;;;-146.98;89.09
28432;BME280;15664;51.302;7.744;2022-10-16T02:11:34;53531.47;;;-146.98;89.05
28432;BME280;15664;51.302;7.744;2022-10-16T02:14:04;53505.19;;;-146.98;89.01
28432;BME280;15664;51.302;7.744;2022-10-16T02:16:34;53525.41;;;-146.98;89.13
28432;BME280;15664;51.302;7.744;2022-10-16T02:19:00;53515.31;;;-146.98;89.18
28432;BME280;15664;51.302;7.744;2022-10-16T02:21:28;53529.44;;;-146.98;89.29
28432;BME280;15664;51.302;7.744;2022-10-16T02:24:08;53495.09;;;-146.98;89.25
28432;BME280;15664;51.302;7.744;2022-10-16T02:27:04;53521.38;;;-146.98;89.24
28432;BME280;15664;51.302;7.744;2022-10-16T02:29:32;53525.41;;;-146.98;89.21
28432;BME280;15664;51.302;7.744;2022-10-16T02:32:03;53527.44;;;-146.98;89.31
28432;BME280;15664;51.302;7.744;2022-10-16T02:34:32;53549.66;;;-146.98;89.36
28432;BME280;15664;51.302;7.744;2022-10-16T02:36:59;53537.53;;;-146.98;89.27
28432;BME280;15664;51.302;7.744;2022-10-16T02:39:27;53541.59;;;-146.98;89.27
28432;BME280;15664;51.302;7.744;2022-10-16T02:41:53;53529.44;;;-146.98;89.31
28432;BME280;15664;51.302;7.744;2022-10-16T02:44:19;53573.91;;;-146.98;89.35
28432;BME280;15664;51.302;7.744;2022-10-16T02:46:44;53537.53;;;-146.98;89.36
28432;BME280;15664;51.302;7.744;2022-10-16T02:49:09;53515.31;;;-146.98;89.46
28432;BME280;15664;51.302;7.744;2022-10-16T02:51:35;53509.25;;;-146.98;89.52
28432;BME280;15664;51.302;7.744;2022-10-16T02:54:00;53543.59;;;-146.98;89.57
28432;BME280;15664;51.302;7.744;2022-10-16T02:56:25;53523.38;;;-146.98;89.60
28432;BME280;15664;51.302;7.744;2022-10-16T02:58:50;53537.53;;;-146.98;89.69
28432;BME280;15664;51.302;7.744;2022-10-16T03:01:16;53497.09;;;-146.98;89.65
28432;BME280;15664;51.302;7.744;2022-10-16T03:03:42;53495.09;;;-146.98;89.78
28432;BME280;15664;51.302;7.744;2022-10-16T03:06:07;53517.31;;;-146.98;89.74
28432;BME280;15664;51.302;7.744;2022-10-16T03:08:32;53509.25;;;-146.98;89.84
28432;BME280;15664;51.302;7.744;2022-10-16T03:10:58;53513.28;;;-146.98;89.93
28432;BME280;15664;51.302;7.744;2022-10-16T03:13:23;53511.25;;;-146.98;90.02
28432;BME280;15664;51.302;7.744;2022-10-16T03:15:48;53517.31;;;-146.98;90.15
28432;BME280;15664;51.302;7.744;2022-10-16T03:18:14;53521.38;;;-146.98;90.17
28432;BME280;15664;51.302;7.744;2022-10-16T03:20:40;53521.38;;;-146.98;90.12
28432;BME280;15664;51.302;7.744;2022-10-16T03:23:05;53503.19;;;-146.98;90.06
28432;BME280;15664;51.302;7.744;2022-10-16T03:25:31;53499.13;;;-146.98;90.08
28432;BME280;15664;51.302;7.744;2022-10-16T03:27:57;53531.47;;;-146.98;90.05
28432;BME280;15664;51.302;7.744;2022-10-16T03:30:22;53533.50;;;-146.98;89.98
28432;BME280;15664;51.302;7.744;2022-10-16T03:32:47;53505.19;;;-146.98;89.88
28432;BME280;15664;51.302;7.744;2022-10-16T03:35:13;53539.56;;;-146.98;89.77
28432;BME280;15664;51.302;7.744;2022-10-16T03:37:38;53525.41;;;-146.98;89.73
28432;BME280;15664;51.302;7.744;2022-10-16T03:40:04;53539.56;;;-146.98;89.74
28432;BME280;15664;51.302;7.744;2022-10-16T03:42:29;53511.25;;;-146.98;89.63
28432;BME280;15664;51.302;7.744;2022-10-16T03:44:55;53503.19;;;-146.98;89.63
28432;BME280;15664;51.302;7.744;2022-10-16T03:47:20;53511.25;;;-146.98;89.47
28432;BME280;15664;51.302;7.744;2022-10-16T03:49:48;53472.84;;;-146.98;89.30
28432;BME280;15664;51.302;7.744;2022-10-16T03:52:13;53499.13;;;-146.98;89.08
28432;BME280;15664;51.302;7.744;2022-10-16T03:54:38;53515.31;;;-146.98;89.00
28432;BME280;15664;51.302;7.744;2022-10-16T03:57:04;53539.56;;;-146.98;88.92
28432;BME280;15664;51.302;7.744;2022-10-16T03:59:29;53521.38;;;-146.98;88.74
28432;BME280;15664;51.302;7.744;2022-10-16T04:01:55;53525.41;;;-146.98;88.71
28432;BME280;15664;51.302;7.744;2022-10-16T04:04:20;53497.09;;;-146.98;88.64
28432;BME280;15664;51.302;7.744;2022-10-16T04:06:45;53523.38;;;-146.98;88.64
28432;BME280;15664;51.302;7.744;2022-10-16T04:09:11;53531.47;;;-146.98;88.46
28432;BME280;15664;51.302;7.744;2022-10-16T04:11:36;53525.41;;;-146.98;88.38
28432;BME280;15664;51.302;7.744;2022-10-16T04:14:01;53545.63;;;-146.98;88.38
28432;BME280;15664;51.302;7.744;2022-10-16T04:16:27;53503.19;;;-146.98;88.33
28432;BME280;15664;51.302;7.744;2022-10-16T04:18:52;53511.25;;;-146.98;88.21
28432;BME280;15664;51.302;7.744;2022-10-16T04:21:17;53503.19;;;-146.98;88.21
28432;BME280;15664;51.302;7.744;2022-10-16T04:23:42;53511.25;;;-146.98;88.21
28432;BME280;15664;51.302;7.744;2022-10-16T04:26:08;53527.44;;;-146.98;88.19
28432;BME280;15664;51.302;7.744;2022-10-16T04:28:35;53523.38;;;-146.98;88.22
28432;BME280;15664;51.302;7.744;2022-10-16T04:31:03;53499.13;;;-146.98;88.21
28432;BME280;15664;51.302;7.744;2022-10-16T04:33:29;53525.41;;;-146.98;88.20
28432;BME280;15664;51.302;7.744;2022-10-16T04:35:57;53543.59;;;-146.98;88.21
28432;BME280;15664;51.302;7.744;2022-10-16T04:38:23;53511.25;;;-146.98;87.77
28432;BME280;15664;51.302;7.744;2022-10-16T04:40:48;53503.19;;;-146.98;87.62
28432;BME280;15664;51.302;7.744;2022-10-16T04:43:14;53547.66;;;-146.98;87.55
28432;BME280;15664;51.302;7.744;2022-10-16T04:45:39;53501.16;;;-146.98;87.38
28432;BME280;15664;51.302;7.744;2022-10-16T04:48:04;53507.22;;;-146.98;87.28
28432;BME280;15664;51.302;7.744;2022-10-16T04:50:29;53515.31;;;-146.98;87.21
28432;BME280;15664;51.302;7.744;2022-10-16T04:53:04;53511.25;;;-146.98;87.27
28432;BME280;15664;51.302;7.744;2022-10-16T04:55:30;53521.38;;;-146.98;87.12
28432;BME280;15664;51.302;7.744;2022-10-16T04:57:55;53511.25;;;-146.98;87.02
28432;BME280;15664;51.302;7.744;2022-10-16T05:00:20;53507.22;;;-146.98;86.95
28432;BME280;15664;51.302;7.744;2022-10-16T05:02:47;53555.72;;;-146.98;87.06
28432;BME280;15664;51.302;7.744;2022-10-16T05:05:12;53527.44;;;-146.98;86.80
28432;BME280;15664;51.302;7.744;2022-10-16T05:07:37;53511.25;;;-146.98;86.75
28432;BME280;15664;51.302;7.744;2022-10-16T05:10:03;53513.28;;;-146.98;86.64
28432;BME280;15664;51.302;7.744;2022-10-16T05:12:28;53511.25;;;-146.98;86.70
28432;BME280;15664;51.302;7.744;2022-10-16T05:14:54;53523.38;;;-146.98;86.66
28432;BME280;15664;51.302;7.744;2022-10-16T05:17:26;53521.38;;;-146.98;86.61
28432;BME280;15664;51.302;7.744;2022-10-16T05:19:51;53507.22;;;-146.98;86.65
28432;BME280;15664;51.302;7.744;2022-10-16T05:22:17;53525.41;;;-146.98;86.66
28432;BME280;15664;51.302;7.744;2022-10-16T05:24:42;53515.31;;;-146.98;86.50
28432;BME280;15664;51.302;7.744;2022-10-16T05:27:07;53478.91;;;-146.98;86.39
28432;BME280;15664;51.302;7.744;2022-10-16T05:29:33;53478.91;;;-146.98;86.32
28432;BME280;15664;51.302;7.744;2022-10-16T05:31:58;53525.41;;;-146.98;86.19
28432;BME280;15664;51.302;7.744;2022-10-16T05:34:23;53527.44;;;-146.98;86.14
28432;BME280;15664;51.302;7.744;2022-10-16T05:36:49;53527.44;;;-146.98;86.05
28432;BME280;15664;51.302;7.744;2022-10-16T05:39:15;53499.13;;;-146.98;86.05
28432;BME280;15664;51.302;7.744;2022-10-16T05:41:41;53495.09;;;-146.98;85.96
28432;BME280;15664;51.302;7.744;2022-10-16T05:44:06;53507.22;;;-146.98;85.90
28432;BME280;15664;51.302;7.744;2022-10-16T05:46:32;53511.25;;;-146.98;85.99
28432;BME280;15664;51.302;7.744;2022-10-16T05:48:58;53515.31;;;-146.98;86.07
28432;BME280;15664;51.302;7.744;2022-10-16T05:51:23;53517.31;;;-146.98;86.07
28432;BME280;15664;51.302;7.744;2022-10-16T05:53:49;53474.88;;;-146.98;86.16
28432;BME280;15664;51.302;7.744;2022-10-16T05:56:14;53515.31;;;-146.98;86.34
28432;BME280;15664;51.302;7.744;2022-10-16T05:58:40;53507.22;;;-146.98;86.48
28432;BME280;15664;51.302;7.744;2022-10-16T06:01:12;53523.38;;;-146.98;86.67
28432;BME280;15664;51.302;7.744;2022-10-16T06:03:39;53505.19;;;-146.98;86.73
28432;BME280;15664;51.302;7.744;2022-10-16T06:06:13;53499.13;;;-146.98;86.81
28432;BME280;15664;51.302;7.744;2022-10-16T06:08:39;53501.16;;;-146.98;86.82
28432;BME280;15664;51.302;7.744;2022-10-16T06:11:08;53507.22;;;-146.98;86.94
28432;BME280;15664;51.302;7.744;2022-10-16T06:13:34;53507.22;;;-146.98;86.91
28432;BME280;15664;51.302;7.744;2022-10-16T06:16:00;53487.00;;;-146.98;86.93
28432;BME280;15664;51.302;7.744;2022-10-16T06:18:27;53489.03;;;-146.98;86.98
28432;BME280;15664;51.302;7.744;2022-10-16T06:20:53;53503.19;;;-146.98;86.64
28432;BME280;15664;51.302;7.744;2022-10-16T06:23:18;53529.44;;;-146.98;86.68
28432;BME280;15664;51.302;7.744;2022-10-16T06:25:44;53491.03;;;-146.98;86.56
28432;BME280;15664;51.302;7.744;2022-10-16T06:28:09;53523.38;;;-146.98;86.59
28432;BME280;15664;51.302;7.744;2022-10-16T06:30:34;53503.19;;;-146.98;86.65
28432;BME280;15664;51.302;7.744;2022-10-16T06:33:00;53507.22;;;-146.98;86.55
28432;BME280;15664;51.302;7.744;2022-10-16T06:35:25;53513.28;;;-146.98;86.50
28432;BME280;15664;51.302;7.744;2022-10-16T06:37:52;53503.19;;;-146.98;86.46
28432;BME280;15664;51.302;7.744;2022-10-16T06:40:18;53517.31;;;-146.98;86.32
28432;BME280;15664;51.302;7.744;2022-10-16T06:42:43;53527.44;;;-146.98;86.28
28432;BME280;15664;51.302;7.744;2022-10-16T06:45:09;53511.25;;;-146.98;86.37
28432;BME280;15664;51.302;7.744;2022-10-16T06:47:34;53523.38;;;-146.98;86.50
28432;BME280;15664;51.302;7.744;2022-10-16T06:49:59;53507.22;;;-146.98;86.43
28432;BME280;15664;51.302;7.744;2022-10-16T06:52:28;53511.25;;;-146.98;86.41
28432;BME280;15664;51.302;7.744;2022-10-16T06:54:53;53462.75;;;-146.98;86.41
28432;BME280;15664;51.302;7.744;2022-10-16T06:57:18;53511.25;;;-146.98;86.18
28432;BME280;15664;51.302;7.744;2022-10-16T06:59:44;53499.13;;;-146.98;86.18
28432;BME280;15664;51.302;7.744;2022-10-16T07:02:09;53509.25;;;-146.98;85.44
28432;BME280;15664;51.302;7.744;2022-10-16T07:04:36;53470.84;;;-146.98;85.58
28432;BME280;15664;51.302;7.744;2022-10-16T07:07:02;53462.75;;;-146.98;84.89
28432;BME280;15664;51.302;7.744;2022-10-16T07:09:27;53493.06;;;-146.98;84.21
28432;BME280;15664;51.302;7.744;2022-10-16T07:11:52;53468.81;;;-146.98;83.61
28432;BME280;15664;51.302;7.744;2022-10-16T07:14:19;53523.38;;;-146.98;82.88
28432;BME280;15664;51.302;7.744;2022-10-16T07:16:46;53493.06;;;-146.98;82.59
28432;BME280;15664;51.302;7.744;2022-10-16T07:19:11;53499.13;;;-146.98;82.23
28432;BME280;15664;51.302;7.744;2022-10-16T07:21:39;53478.91;;;-146.98;81.78
28432;BME280;15664;51.302;7.744;2022-10-16T07:24:06;53493.06;;;-146.98;81.23
28432;BME280;15664;51.302;7.744;2022-10-16T07:26:34;53466.78;;;-146.98;80.51
28432;BME280;15664;51.302;7.744;2022-10-16T07:29:00;53470.84;;;-146.98;80.65
28432;BME280;15664;51.302;7.744;2022-10-16T07:31:27;53539.56;;;-146.98;80.94
28432;BME280;15664;51.302;7.744;2022-10-16T07:33:53;53466.78;;;-146.98;81.10
28432;BME280;15664;51.302;7.744;2022-10-16T07:36:20;53495.09;;;-146.98;81.30
28432;BME280;15664;51.302;7.744;2022-10-16T07:38:46;53456.69;;;-146.98;81.62
28432;BME280;15664;51.302;7.744;2022-10-16T07:41:14;53470.84;;;-146.98;81.54
28432;BME280;15664;51.302;7.744;2022-10-16T07:43:40;53499.13;;;-146.98;81.34
28432;BME280;15664;51.302;7.744;2022-10-16T07:46:06;53493.06;;;-146.98;80.89
28432;BME280;15664;51.302;7.744;2022-10-16T07:48:33;53495.09;;;-146.98;81.03
28432;BME280;15664;51.302;7.744;2022-10-16T07:51:00;53493.06;;;-146.98;80.43
28432;BME280;15664;51.302;7.744;2022-10-16T07:53:26;53466.78;;;-146.98;80.40
28432;BME280;15664;51.302;7.744;2022-10-16T07:55:51;53484.97;;;-146.98;79.56
28432;BME280;15664;51.302;7.744;2022-10-16T07:58:17;53452.63;;;-146.98;79.10
28432;BME280;15664;51.302;7.744;2022-10-16T08:00:42;53472.84;;;-146.98;78.06
28432;BME280;15664;51.302;7.744;2022-10-16T08:03:08;53468.81;;;-146.98;76.76
28432;BME280;15664;51.302;7.744;2022-10-16T08:05:33;53489.03;;;-146.98;77.15
28432;BME280;15664;51.302;7.744;2022-10-16T08:08:00;53450.63;;;-146.98;77.45
28432;BME280;15664;51.302;7.744;2022-10-16T08:10:27;53472.84;;;-146.98;77.31
28432;BME280;15664;51.302;7.744;2022-10-16T08:12:53;53462.75;;;-146.98;77.88
28432;BME280;15664;51.302;7.744;2022-10-16T08:15:19;53438.50;;;-146.98;78.33
28432;BME280;15664;51.302;7.744;2022-10-16T08:17:57;53480.94;;;-146.98;78.24
28432;BME280;15664;51.302;7.744;2022-10-16T08:20:22;53474.88;;;-146.98;77.28
28432;BME280;15664;51.302;7.744;2022-10-16T08:22:47;53470.84;;;-146.98;77.51
28432;BME280;15664;51.302;7.744;2022-10-16T08:25:13;53462.75;;;-146.98;77.46
28432;BME280;15664;51.302;7.744;2022-10-16T08:27:38;53474.88;;;-146.98;76.28
28432;BME280;15664;51.302;7.744;2022-10-16T08:30:04;53462.75;;;-146.98;75.26
28432;BME280;15664;51.302;7.744;2022-10-16T08:32:29;53470.84;;;-146.98;75.35
28432;BME280;15664;51.302;7.744;2022-10-16T08:34:54;53462.75;;;-146.98;75.67
28432;BME280;15664;51.302;7.744;2022-10-16T08:37:20;53454.66;;;-146.98;75.12
28432;BME280;15664;51.302;7.744;2022-10-16T08:39:45;53493.06;;;-146.98;74.03
28432;BME280;15664;51.302;7.744;2022-10-16T08:42:22;53446.56;;;-146.98;74.38
28432;BME280;15664;51.302;7.744;2022-10-16T08:48:18;53462.75;;;-146.98;69.96
28432;BME280;15664;51.302;7.744;2022-10-16T08:50:47;53468.81;;;-146.98;67.38
28432;BME280;15664;51.302;7.744;2022-10-16T08:53:18;53450.63;;;-146.98;65.59
28432;BME280;15664;51.302;7.744;2022-10-16T08:55:50;53438.50;;;-146.98;64.72
28432;BME280;15664;51.302;7.744;2022-10-16T08:58:26;53426.38;;;-146.98;64.97
28432;BME280;15664;51.302;7.744;2022-10-16T09:00:54;53430.41;;;-146.98;66.15
28432;BME280;15664;51.302;7.744;2022-10-16T09:03:38;53446.56;;;-146.98;65.98
28432;BME280;15664;51.302;7.744;2022-10-16T09:06:18;53394.03;;;-146.98;63.01
28432;BME280;15664;51.302;7.744;2022-10-16T09:11:46;53440.50;;;-146.98;62.12
28432;BME280;15664;51.302;7.744;2022-10-16T09:20:58;53396.03;;;-146.98;59.00
28432;BME280;15664;51.302;7.744;2022-10-16T09:25:30;53410.19;;;-146.98;58.02
28432;BME280;15664;51.302;7.744;2022-10-16T09:27:56;53418.28;;;-146.98;58.58
28432;BME280;15664;51.302;7.744;2022-10-16T09:30:22;53418.28;;;-146.98;58.65
28432;BME280;15664;51.302;7.744;2022-10-16T09:32:52;53422.31;;;-146.98;57.70
28432;BME280;15664;51.302;7.744;2022-10-16T09:35:27;53389.97;;;-146.98;57.48
28432;BME280;15664;51.302;7.744;2022-10-16T09:37:56;53406.16;;;-146.98;58.75
28432;BME280;15664;51.302;7.744;2022-10-16T09:40:33;53373.81;;;-146.98;58.71
28432;BME280;15664;51.302;7.744;2022-10-16T09:43:20;53396.03;;;-146.98;57.65
28432;BME280;15664;51.302;7.744;2022-10-16T09:46:00;53404.13;;;-146.98;57.36
28432;BME280;15664;51.302;7.744;2022-10-16T09:48:50;53466.78;;;-146.98;58.89
28432;BME280;15664;51.302;7.744;2022-10-16T09:51:21;53414.25;;;-146.98;58.79
28432;BME280;15664;51.302;7.744;2022-10-16T09:53:47;53422.31;;;-146.98;57.97
28432;BME280;15664;51.302;7.744;2022-10-16T09:56:29;53408.16;;;-146.98;56.43
28432;BME280;15664;51.302;7.744;2022-10-16T09:58:57;53381.91;;;-146.98;54.60
28432;BME280;15664;51.302;7.744;2022-10-16T10:01:30;53345.50;;;-146.98;52.72
28432;BME280;15664;51.302;7.744;2022-10-16T10:03:57;53365.72;;;-146.98;51.08
28432;BME280;15664;51.302;7.744;2022-10-16T10:06:33;53365.72;;;-146.98;49.69
28432;BME280;15664;51.302;7.744;2022-10-16T10:09:05;53331.38;;;-146.98;51.26
28432;BME280;15664;51.302;7.744;2022-10-16T10:12:00;53375.84;;;-146.98;50.86
28432;BME280;15664;51.302;7.744;2022-10-16T10:14:28;53341.47;;;-146.98;51.11
28432;BME280;15664;51.302;7.744;2022-10-16T10:19:29;53363.72;;;-146.98;49.04
28432;BME280;15664;51.302;7.744;2022-10-16T10:22:01;53325.31;;;-146.98;46.99
28432;BME280;15664;51.302;7.744;2022-10-16T10:24:27;53377.84;;;-146.98;46.68
28432;BME280;15664;51.302;7.744;2022-10-16T10:27:09;53349.56;;;-146.98;46.33
28432;BME280;15664;51.302;7.744;2022-10-16T10:29:54;53325.31;;;-146.98;45.02
28432;BME280;15664;51.302;7.744;2022-10-16T10:32:31;53337.44;;;-146.98;45.70
28432;BME280;15664;51.302;7.744;2022-10-16T10:35:19;53349.56;;;-146.98;44.62
28432;BME280;15664;51.302;7.744;2022-10-16T10:40:42;53317.22;;;-146.98;43.29
28432;BME280;15664;51.302;7.744;2022-10-16T10:45:55;53303.06;;;-146.98;42.11
28432;BME280;15664;51.302;7.744;2022-10-16T10:54:16;53333.38;;;-146.98;41.09
28432;BME280;15664;51.302;7.744;2022-10-16T10:56:57;53317.22;;;-146.98;41.16
28432;BME280;15664;51.302;7.744;2022-10-16T11:00:00;53341.47;;;-146.98;41.96
28432;BME280;15664;51.302;7.744;2022-10-16T11:02:29;53313.19;;;-146.98;42.10
28432;BME280;15664;51.302;7.744;2022-10-16T11:07:57;53309.13;;;-146.98;41.26
28432;BME280;15664;51.302;7.744;2022-10-16T11:10:40;53347.53;;;-146.98;42.34
28432;BME280;15664;51.302;7.744;2022-10-16T11:13:18;53339.44;;;-146.98;42.08
28432;BME280;15664;51.302;7.744;2022-10-16T11:15:48;53301.03;;;-146.98;40.64
28432;BME280;15664;51.302;7.744;2022-10-16T11:18:20;53301.03;;;-146.98;40.05
28432;BME280;15664;51.302;7.744;2022-10-16T11:21:00;53286.91;;;-146.98;40.09
28432;BME280;15664;51.302;7.744;2022-10-16T11:23:50;53331.38;;;-146.98;40.70
28432;BME280;15664;51.302;7.744;2022-10-16T11:26:25;53301.03;;;-146.98;41.06
28432;BME280;15664;51.302;7.744;2022-10-16T11:28:56;53337.44;;;-146.98;42.10
28432;BME280;15664;51.302;7.744;2022-10-16T11:31:34;53317.22;;;-146.98;42.57
28432;BME280;15664;51.302;7.744;2022-10-16T11:34:02;53337.44;;;-146.98;41.73
28432;BME280;15664;51.302;7.744;2022-10-16T11:36:42;53305.09;;;-146.98;41.73
28432;BME280;15664;51.302;7.744;2022-10-16T11:47:41;53268.72;;;-146.98;38.84
28432;BME280;15664;51.302;7.744;2022-10-16T11:50:22;53254.56;;;-146.98;39.08
28432;BME280;15664;51.302;7.744;2022-10-16T11:53:01;53274.78;;;-146.98;38.45
28432;BME280;15664;51.302;7.744;2022-10-16T11:55:34;53272.75;;;-146.98;37.91
28432;BME280;15664;51.302;7.744;2022-10-16T11:58:22;53236.38;;;-146.98;36.74
28432;BME280;15664;51.302;7.744;2022-10-16T12:00:58;53230.31;;;-146.98;36.26
28432;BME280;15664;51.302;7.744;2022-10-16T12:06:58;53228.28;;;-146.98;35.87
28432;BME280;15664;51.302;7.744;2022-10-16T12:09:27;53248.50;;;-146.98;35.76
28432;BME280;15664;51.302;7.744;2022-10-16T12:11:54;53248.50;;;-146.98;36.19
28432;BME280;15664;51.302;7.744;2022-10-16T12:14:34;53210.09;;;-146.98;36.39
28432;BME280;15664;51.302;7.744;2022-10-16T12:17:23;53246.47;;;-146.98;35.71
28432;BME280;15664;51.302;7.744;2022-10-16T12:20:00;53236.38;;;-146.98;35.56
28432;BME280;15664;51.302;7.744;2022-10-16T12:22:29;53250.50;;;-146.98;34.75
28432;BME280;15664;51.302;7.744;2022-10-16T12:24:55;53244.44;;;-146.98;34.92
28432;BME280;15664;51.302;7.744;2022-10-16T12:27:31;53250.50;;;-146.98;36.11
28432;BME280;15664;51.302;7.744;2022-10-16T12:30:02;53294.97;;;-146.98;37.62
28432;BME280;15664;51.302;7.744;2022-10-16T12:32:38;53252.53;;;-146.98;37.81
28432;BME280;15664;51.302;7.744;2022-10-16T12:35:05;53270.72;;;-146.98;37.68
28432;BME280;15664;51.302;7.744;2022-10-16T12:37:41;53297.00;;;-146.98;38.66
28432;BME280;15664;51.302;7.744;2022-10-16T12:40:28;53282.84;;;-146.98;39.55
28432;BME280;15664;51.302;7.744;2022-10-16T12:42:54;53301.03;;;-146.98;40.80
28432;BME280;15664;51.302;7.744;2022-10-16T12:47:54;53357.66;;;-146.98;42.89
28432;BME280;15664;51.302;7.744;2022-10-16T12:50:34;53349.56;;;-146.98;44.06
28432;BME280;15664;51.302;7.744;2022-10-16T12:53:02;53353.59;;;-146.98;44.59
28432;BME280;15664;51.302;7.744;2022-10-16T12:55:43;53317.22;;;-146.98;41.91
28432;BME280;15664;51.302;7.744;2022-10-16T12:58:18;53286.91;;;-146.98;40.96
28432;BME280;15664;51.302;7.744;2022-10-16T13:00:57;53309.13;;;-146.98;39.37
28432;BME280;15664;51.302;7.744;2022-10-16T13:03:31;53305.09;;;-146.98;38.99
28432;BME280;15664;51.302;7.744;2022-10-16T13:06:25;53303.06;;;-146.98;39.61
28432;BME280;15664;51.302;7.744;2022-10-16T13:09:20;53272.75;;;-146.98;38.99
28432;BME280;15664;51.302;7.744;2022-10-16T13:12:07;53272.75;;;-146.98;38.40
28432;BME280;15664;51.302;7.744;2022-10-16T13:17:46;53256.59;;;-146.98;38.33
28432;BME280;15664;51.302;7.744;2022-10-16T13:23:16;53290.94;;;-146.98;41.25
28432;BME280;15664;51.302;7.744;2022-10-16T13:26:13;53329.34;;;-146.98;43.11
28432;BME280;15664;51.302;7.744;2022-10-16T13:28:41;53309.13;;;-146.98;43.38
28432;BME280;15664;51.302;7.744;2022-10-16T13:31:16;53297.00;;;-146.98;40.80
28432;BME280;15664;51.302;7.744;2022-10-16T13:33:46;53282.84;;;-146.98;37.86
28432;BME280;15664;51.302;7.744;2022-10-16T13:36:24;53246.47;;;-146.98;36.07
28432;BME280;15664;51.302;7.744;2022-10-16T13:39:13;53242.44;;;-146.98;36.10
28432;BME280;15664;51.302;7.744;2022-10-16T13:41:40;53224.25;;;-146.98;35.93
28432;BME280;15664;51.302;7.744;2022-10-16T13:44:19;53236.38;;;-146.98;34.34
28432;BME280;15664;51.302;7.744;2022-10-16T13:46:45;53218.19;;;-146.98;33.31
28432;BME280;15664;51.302;7.744;2022-10-16T13:49:15;53232.31;;;-146.98;34.43
28432;BME280;15664;51.302;7.744;2022-10-16T13:51:47;53254.56;;;-146.98;35.99
28432;BME280;15664;51.302;7.744;2022-10-16T13:54:18;53256.59;;;-146.98;37.50
28432;BME280;15664;51.302;7.744;2022-10-16T13:56:43;53297.00;;;-146.98;39.04
28432;BME280;15664;51.302;7.744;2022-10-16T13:59:33;53341.47;;;-146.98;41.42
28432;BME280;15664;51.302;7.744;2022-10-16T14:02:00;53325.31;;;-146.98;42.86